Time;durP1;ratioP1;P1;durP2;ratioP2;P2;SDS_P1;SDS_P2;PMS_P1;PMS_P2;Temp;Humidity;BMP_temperature;BMP_pressure;BME280_temperature;BME280_humidity;BME280_pressure;Samples;Min_cycle;Max_cycle;Signal;HPM_P1;HPM_P2
2021/12/02 00:00:39;;;;;;;0.17;0.10;;;9.40;91.50;;;;;;5005180;28;20036;-74
2021/12/02 00:03:09;;;;;;;0.23;0.23;;;9.40;91.40;;;;;;5012982;28;20022;-74
2021/12/02 00:05:35;;;;;;;0.20;0.20;;;9.40;91.40;;;;;;5003486;28;20025;-74
2021/12/02 00:08:01;;;;;;;0.43;0.30;;;9.50;91.20;;;;;;5008173;28;20032;-74
2021/12/02 00:10:31;;;;;;;0.40;0.30;;;9.50;91.20;;;;;;5026973;28;20108;-75
2021/12/02 00:12:58;;;;;;;0.70;0.70;;;9.50;91.30;;;;;;5010640;28;20025;-74
2021/12/02 00:15:32;;;;;;;2.45;0.30;;;9.50;91.10;;;;;;5001291;28;20096;-74
2021/12/02 00:21:09;;;;;;;0.20;0.20;;;9.40;91.20;;;;;;5017648;28;20120;-74
2021/12/02 00:23:59;;;;;;;;;;;9.40;91.00;;;;;;5007672;28;20143;-74
2021/12/02 00:26:28;;;;;;;0.70;0.47;;;9.40;91.40;;;;;;5000370;28;19905;-74
2021/12/02 00:28:58;;;;;;;0.25;0.25;;;9.40;91.30;;;;;;5027367;28;20107;-74
2021/12/02 00:31:31;;;;;;;2.70;0.40;;;9.30;91.00;;;;;;5005999;28;20026;-74
2021/12/02 00:34:03;;;;;;;0.25;0.20;;;9.40;91.00;;;;;;5008356;28;20022;-74
2021/12/02 00:36:32;;;;;;;0.30;0.28;;;9.30;90.80;;;;;;4999098;28;20030;-73
2021/12/02 00:39:07;;;;;;;0.30;0.28;;;9.40;90.80;;;;;;5009052;28;20110;-73
2021/12/02 00:41:33;;;;;;;0.17;0.17;;;9.40;90.70;;;;;;5015832;28;20032;-74
2021/12/02 00:43:59;;;;;;;0.27;0.20;;;9.40;90.60;;;;;;5007024;28;20025;-74
2021/12/02 00:46:27;;;;;;;0.65;0.65;;;9.40;90.40;;;;;;5003565;28;20028;-74
2021/12/02 00:48:53;;;;;;;0.32;0.32;;;9.40;90.30;;;;;;5004902;28;20030;-75
2021/12/02 00:51:20;;;;;;;1.05;0.40;;;9.50;90.20;;;;;;5005202;28;20067;-74
2021/12/02 00:53:52;;;;;;;0.57;0.40;;;9.50;90.10;;;;;;5012028;28;20041;-74
2021/12/02 00:56:23;;;;;;;0.85;0.38;;;9.50;90.10;;;;;;5002631;28;20021;-74
2021/12/02 00:58:49;;;;;;;0.30;0.30;;;9.50;90.10;;;;;;5001419;28;20443;-73
2021/12/02 01:01:18;;;;;;;0.47;0.40;;;9.50;89.60;;;;;;5007929;28;21535;-74
2021/12/02 01:03:49;;;;;;;0.20;0.20;;;9.50;89.40;;;;;;5005173;28;20034;-74
2021/12/02 01:06:16;;;;;;;0.75;0.43;;;9.50;89.30;;;;;;4999544;28;20033;-74
2021/12/02 01:08:48;;;;;;;1.50;0.47;;;9.60;88.90;;;;;;5002332;28;20873;-74
2021/12/02 01:11:14;;;;;;;1.25;0.40;;;9.60;89.00;;;;;;5012227;28;20075;-74
2021/12/02 01:13:46;;;;;;;0.57;0.50;;;9.50;89.00;;;;;;5017685;28;20025;-74
2021/12/02 01:16:13;;;;;;;0.13;0.13;;;9.60;88.60;;;;;;5008808;28;20029;-74
2021/12/02 01:18:42;;;;;;;0.50;0.40;;;9.60;88.90;;;;;;5001499;28;20014;-74
2021/12/02 01:21:21;;;;;;;0.40;0.30;;;9.60;88.60;;;;;;5009189;28;20038;-74
2021/12/02 01:23:54;;;;;;;0.40;0.38;;;9.60;88.60;;;;;;5002988;28;20047;-74
2021/12/02 01:26:21;;;;;;;0.22;0.22;;;9.60;88.40;;;;;;4997461;28;20017;-74
2021/12/02 01:28:50;;;;;;;0.38;0.30;;;9.60;88.80;;;;;;5006640;28;20037;-73
2021/12/02 01:31:16;;;;;;;0.50;0.50;;;9.60;88.50;;;;;;5002881;28;20036;-73
2021/12/02 01:33:45;;;;;;;1.42;0.50;;;9.60;88.50;;;;;;5000817;28;20021;-74
2021/12/02 01:36:11;;;;;;;0.85;0.32;;;9.60;88.20;;;;;;5001937;28;20070;-74
2021/12/02 01:38:38;;;;;;;0.32;0.30;;;9.60;88.60;;;;;;5000486;28;20558;-74
2021/12/02 01:41:05;;;;;;;0.98;0.40;;;9.50;89.10;;;;;;5002364;28;20045;-74
2021/12/02 01:43:49;;;;;;;0.20;0.20;;;9.60;88.60;;;;;;5002011;28;20033;-74
2021/12/02 01:46:24;;;;;;;0.30;0.30;;;9.50;88.40;;;;;;5000574;28;20052;-73
2021/12/02 01:49:04;;;;;;;0.40;0.40;;;9.60;87.90;;;;;;5013285;28;20467;-74
2021/12/02 01:51:31;;;;;;;0.38;0.38;;;9.60;88.00;;;;;;4992852;28;20022;-73
2021/12/02 01:54:16;;;;;;;1.02;0.30;;;9.60;88.20;;;;;;5005477;28;20018;-74
2021/12/02 01:57:03;;;;;;;0.32;0.32;;;9.50;88.50;;;;;;5000029;28;20014;-74
2021/12/02 01:59:34;;;;;;;0.93;0.45;;;9.50;88.90;;;;;;5002445;28;20018;-73
2021/12/02 02:02:03;;;;;;;0.32;0.32;;;9.50;87.60;;;;;;5000933;28;20073;-74
2021/12/02 02:04:35;;;;;;;0.32;0.30;;;9.50;87.90;;;;;;5004120;28;20108;-73
2021/12/02 02:07:12;;;;;;;0.75;0.55;;;9.50;88.00;;;;;;5009497;28;20662;-74
2021/12/02 02:09:45;;;;;;;1.40;0.30;;;9.50;87.90;;;;;;5005271;28;20802;-73
2021/12/02 02:12:13;;;;;;;0.43;0.32;;;9.40;87.20;;;;;;5005820;28;20053;-74
2021/12/02 02:14:41;;;;;;;0.40;0.40;;;9.50;87.40;;;;;;5000062;28;20525;-74
2021/12/02 02:17:19;;;;;;;0.30;0.30;;;9.50;87.50;;;;;;5001656;28;20025;-73
2021/12/02 02:19:46;;;;;;;0.20;0.20;;;9.40;87.50;;;;;;5024451;28;20022;-74
2021/12/02 02:22:13;;;;;;;0.88;0.40;;;9.40;87.30;;;;;;5010292;28;20022;-74
2021/12/02 02:24:40;;;;;;;0.40;0.40;;;9.40;87.40;;;;;;5012208;28;20682;-74
2021/12/02 02:27:08;;;;;;;0.90;0.30;;;9.40;87.40;;;;;;5005228;28;20061;-73
2021/12/02 02:29:42;;;;;;;0.20;0.20;;;9.40;87.30;;;;;;5005442;28;20021;-73
2021/12/02 02:32:08;;;;;;;0.20;0.20;;;9.40;87.70;;;;;;5003543;28;20028;-75
2021/12/02 02:34:38;;;;;;;0.33;0.33;;;9.30;87.60;;;;;;5001836;28;20022;-73
2021/12/02 02:37:07;;;;;;;0.30;0.30;;;9.30;88.20;;;;;;5005387;28;20275;-74
2021/12/02 02:39:35;;;;;;;1.23;0.25;;;9.30;88.00;;;;;;5003941;28;20365;-73
2021/12/02 02:42:04;;;;;;;0.55;0.40;;;9.30;87.60;;;;;;5005894;28;20029;-74
2021/12/02 02:44:33;;;;;;;0.30;0.30;;;9.30;87.70;;;;;;5023027;28;20467;-73
2021/12/02 02:46:59;;;;;;;0.22;0.22;;;9.30;88.20;;;;;;4999367;28;20030;-74
2021/12/02 02:49:26;;;;;;;0.60;0.37;;;9.20;88.20;;;;;;4999548;28;20037;-74
2021/12/02 02:51:54;;;;;;;0.52;0.40;;;9.20;87.80;;;;;;5025759;28;21369;-73
2021/12/02 02:54:23;;;;;;;0.50;0.25;;;9.20;87.80;;;;;;5020387;28;20022;-74
2021/12/02 02:56:57;;;;;;;0.32;0.20;;;9.30;88.10;;;;;;5005251;28;20026;-74
2021/12/02 02:59:38;;;;;;;0.47;0.28;;;9.30;87.50;;;;;;5008164;28;20029;-74
2021/12/02 03:02:14;;;;;;;0.52;0.52;;;9.30;87.60;;;;;;5008405;28;20017;-74
2021/12/02 03:05:37;;;;;;;0.40;0.30;;;9.30;88.10;;;;;;5004571;28;20021;-74
2021/12/02 03:07:46;;;;;;;0.30;0.30;;;9.30;88.10;;;;;;4995645;28;20037;-74
2021/12/02 03:10:20;;;;;;;3.60;0.40;;;9.30;87.70;;;;;;5016901;28;20049;-73
2021/12/02 03:17:46;;;;;;;0.45;0.30;;;9.30;87.70;;;;;;4999732;28;20167;-73
2021/12/02 03:20:13;;;;;;;0.65;0.22;;;9.30;87.60;;;;;;5008255;28;20096;-74
2021/12/02 03:22:41;;;;;;;0.32;0.32;;;9.30;87.60;;;;;;5003711;28;20101;-74
2021/12/02 03:25:08;;;;;;;0.28;0.28;;;9.20;87.90;;;;;;5005404;28;20028;-74
2021/12/02 03:27:35;;;;;;;0.22;0.22;;;9.20;87.80;;;;;;5012251;28;20013;-74
2021/12/02 03:30:06;;;;;;;1.48;0.45;;;9.20;88.10;;;;;;5001561;28;20018;-73
2021/12/02 03:32:37;;;;;;;0.28;0.20;;;9.20;88.00;;;;;;5007011;28;20091;-74
2021/12/02 03:35:04;;;;;;;0.85;0.20;;;9.10;87.50;;;;;;5001742;28;20026;-74
2021/12/02 03:37:31;;;;;;;0.40;0.40;;;9.20;87.80;;;;;;5009940;28;20587;-74
2021/12/02 03:39:57;;;;;;;;;;;9.20;87.70;;;;;;5005023;28;20034;-74
2021/12/02 03:42:23;;;;;;;0.30;0.30;;;9.10;88.10;;;;;;4997680;28;19917;-75
2021/12/02 03:44:49;;;;;;;0.63;0.30;;;9.10;87.80;;;;;;5027484;28;20036;-74
2021/12/02 03:47:16;;;;;;;0.30;0.20;;;9.10;87.50;;;;;;5008768;28;20112;-73
2021/12/02 03:49:44;;;;;;;;;;;9.00;87.80;;;;;;5009448;28;20021;-74
2021/12/02 03:52:10;;;;;;;0.35;0.20;;;9.10;87.40;;;;;;5005731;28;19909;-74
2021/12/02 03:54:39;;;;;;;0.20;0.20;;;9.20;86.90;;;;;;4998562;28;20068;-74
2021/12/02 03:57:05;;;;;;;0.40;0.22;;;9.20;87.40;;;;;;5023685;28;20459;-74
2021/12/02 03:59:32;;;;;;;0.40;0.30;;;9.20;86.70;;;;;;5006878;28;20037;-73
2021/12/02 04:01:58;;;;;;;0.28;0.28;;;9.20;86.10;;;;;;5001628;28;20022;-74
2021/12/02 04:04:30;;;;;;;0.38;0.32;;;9.20;86.20;;;;;;5004895;28;20029;-74
2021/12/02 04:07:12;;;;;;;0.50;0.40;;;9.10;86.50;;;;;;5004018;28;20026;-74
2021/12/02 04:09:43;;;;;;;0.40;0.30;;;9.10;86.40;;;;;;5001385;28;20092;-74
2021/12/02 04:15:11;;;;;;;1.08;0.40;;;9.10;86.30;;;;;;4995931;28;20030;-74
2021/12/02 04:17:43;;;;;;;0.15;0.15;;;9.10;86.30;;;;;;5005576;28;20033;-74
2021/12/02 04:20:16;;;;;;;0.60;0.28;;;9.10;86.10;;;;;;5026077;28;20399;-74
2021/12/02 04:22:48;;;;;;;0.30;0.28;;;9.10;86.40;;;;;;5008170;28;20113;-74
2021/12/02 04:25:16;;;;;;;0.40;0.30;;;9.10;86.60;;;;;;5005215;28;20025;-74
2021/12/02 04:27:44;;;;;;;0.73;0.50;;;9.00;86.50;;;;;;5008794;28;20730;-73
2021/12/02 04:30:15;;;;;;;1.13;0.30;;;9.00;86.10;;;;;;5008351;28;20032;-74
2021/12/02 04:32:43;;;;;;;0.30;0.30;;;9.00;85.80;;;;;;5006725;28;20499;-74
2021/12/02 04:35:11;;;;;;;0.30;0.30;;;9.10;86.00;;;;;;5006595;28;20482;-74
2021/12/02 04:37:43;;;;;;;0.20;0.10;;;9.00;85.90;;;;;;5002417;28;20063;-74
2021/12/02 04:40:10;;;;;;;0.55;0.30;;;9.10;86.10;;;;;;5008042;28;20072;-74
2021/12/02 04:42:37;;;;;;;0.17;0.17;;;9.00;86.20;;;;;;5018097;28;20029;-74
2021/12/02 04:45:03;;;;;;;0.40;0.20;;;8.90;85.60;;;;;;5009961;28;20025;-74
2021/12/02 04:47:29;;;;;;;0.20;0.20;;;9.00;86.30;;;;;;5020193;28;20104;-74
2021/12/02 04:49:57;;;;;;;0.47;0.20;;;8.90;85.90;;;;;;5022634;28;20630;-75
2021/12/02 04:52:23;;;;;;;0.30;0.30;;;8.80;85.70;;;;;;5018767;28;20106;-74
2021/12/02 04:54:48;;;;;;;0.20;0.20;;;9.00;86.30;;;;;;5017557;28;20498;-74
2021/12/02 04:57:16;;;;;;;0.20;0.20;;;8.90;86.00;;;;;;5005246;28;20025;-74
2021/12/02 04:59:45;;;;;;;0.40;0.30;;;8.90;85.80;;;;;;5017769;28;20816;-74
2021/12/02 05:02:13;;;;;;;0.38;0.28;;;8.90;85.40;;;;;;5003834;28;20032;-74
2021/12/02 05:04:46;;;;;;;0.30;0.30;;;8.90;85.60;;;;;;5001786;28;20491;-74
2021/12/02 05:07:12;;;;;;;0.30;0.30;;;8.90;85.60;;;;;;5007914;28;20290;-74
2021/12/02 05:09:39;;;;;;;0.63;0.53;;;8.90;85.50;;;;;;5001216;28;20680;-74
2021/12/02 05:12:06;;;;;;;0.88;0.30;;;8.90;85.90;;;;;;5000308;28;20026;-74
2021/12/02 05:14:33;;;;;;;0.30;0.30;;;8.90;85.20;;;;;;5019481;28;20022;-74
2021/12/02 05:16:59;;;;;;;0.20;0.20;;;8.90;85.20;;;;;;5010158;28;20029;-73
2021/12/02 05:19:24;;;;;;;0.13;0.13;;;8.90;85.30;;;;;;5011123;28;20029;-74
2021/12/02 05:21:54;;;;;;;0.17;0.17;;;8.90;85.50;;;;;;5012808;28;20117;-74
2021/12/02 05:24:21;;;;;;;0.65;0.43;;;8.90;85.10;;;;;;5001179;28;20030;-73
2021/12/02 05:26:52;;;;;;;0.40;0.32;;;8.90;85.10;;;;;;5001621;28;20167;-74
2021/12/02 05:29:19;;;;;;;0.38;0.30;;;8.90;85.10;;;;;;5009622;28;20157;-74
2021/12/02 05:31:45;;;;;;;0.38;0.20;;;8.90;85.60;;;;;;4996864;28;20029;-73
2021/12/02 05:34:13;;;;;;;0.40;0.40;;;8.90;84.90;;;;;;5010710;28;20033;-74
2021/12/02 05:36:39;;;;;;;0.50;0.28;;;8.90;85.10;;;;;;4999944;28;20025;-74
2021/12/02 05:39:04;;;;;;;1.70;0.50;;;8.90;85.10;;;;;;5006337;28;20022;-72
2021/12/02 05:41:31;;;;;;;0.40;0.30;;;8.90;86.10;;;;;;4998929;28;20018;-71
2021/12/02 05:43:57;;;;;;;0.52;0.50;;;9.00;85.20;;;;;;5020583;28;20053;-72
2021/12/02 05:46:23;;;;;;;0.53;0.20;;;9.00;85.00;;;;;;5001263;28;20117;-72
2021/12/02 05:48:49;;;;;;;0.82;0.65;;;9.00;85.20;;;;;;5009913;28;20475;-72
2021/12/02 05:51:15;;;;;;;0.37;0.20;;;8.90;85.40;;;;;;5018733;28;20413;-72
2021/12/02 05:53:40;;;;;;;0.67;0.37;;;8.90;85.70;;;;;;5002856;28;20103;-72
2021/12/02 05:56:06;;;;;;;0.30;0.23;;;8.90;86.00;;;;;;5005498;28;20701;-72
2021/12/02 05:58:32;;;;;;;0.43;0.40;;;8.80;86.20;;;;;;5001859;28;20032;-72
2021/12/02 06:00:57;;;;;;;1.17;0.70;;;8.80;86.40;;;;;;5007401;28;20051;-72
2021/12/02 06:03:23;;;;;;;0.47;0.47;;;8.80;86.60;;;;;;4995741;28;20030;-72
2021/12/02 06:05:51;;;;;;;0.97;0.40;;;8.80;86.60;;;;;;4998292;28;20125;-72
2021/12/02 06:08:17;;;;;;;0.28;0.28;;;8.80;87.00;;;;;;5007015;28;20030;-72
2021/12/02 06:10:43;;;;;;;0.50;0.50;;;8.80;87.10;;;;;;5000219;28;20516;-72
2021/12/02 06:13:08;;;;;;;0.60;0.30;;;8.80;87.50;;;;;;5000423;28;20025;-72
2021/12/02 06:15:34;;;;;;;0.20;0.20;;;8.80;87.50;;;;;;5000460;28;20375;-72
2021/12/02 06:18:01;;;;;;;0.40;0.40;;;8.70;87.00;;;;;;5001928;28;20750;-72
2021/12/02 06:20:29;;;;;;;0.63;0.40;;;8.80;87.30;;;;;;4994769;28;20613;-72
2021/12/02 06:22:55;;;;;;;0.47;0.40;;;8.70;87.00;;;;;;5007854;28;20101;-72
2021/12/02 06:27:48;;;;;;;0.37;0.30;;;8.70;87.40;;;;;;5008118;28;20573;-72
2021/12/02 06:30:18;;;;;;;2.70;0.50;;;8.70;87.20;;;;;;5008526;28;20034;-72
2021/12/02 06:32:44;;;;;;;1.08;0.50;;;8.70;87.50;;;;;;5006313;28;20021;-72
2021/12/02 06:35:12;;;;;;;0.50;0.40;;;8.70;87.90;;;;;;5007116;28;20029;-72
2021/12/02 06:37:40;;;;;;;0.40;0.40;;;8.70;88.10;;;;;;5002226;28;20510;-72
2021/12/02 06:40:09;;;;;;;0.40;0.40;;;8.70;88.40;;;;;;5010806;28;20034;-72
2021/12/02 06:42:35;;;;;;;0.73;0.50;;;8.60;88.50;;;;;;5003193;28;20058;-69
2021/12/02 06:45:01;;;;;;;0.70;0.30;;;8.70;90.30;;;;;;4996206;28;20038;-69
2021/12/02 06:47:39;;;;;;;0.57;0.50;;;8.80;90.20;;;;;;5004514;28;20080;-68
2021/12/02 06:50:13;;;;;;;0.30;0.30;;;8.90;88.20;;;;;;4998104;28;20050;-69
2021/12/02 06:52:39;;;;;;;1.08;0.25;;;9.00;89.90;;;;;;5005150;28;20030;-69
2021/12/02 06:55:05;;;;;;;0.30;0.30;;;9.10;87.20;;;;;;4998330;28;20014;-69
2021/12/02 06:57:31;;;;;;;0.90;0.20;;;9.20;87.30;;;;;;5007052;28;20096;-69
2021/12/02 06:59:59;;;;;;;0.50;0.50;;;9.20;87.60;;;;;;4998806;28;20091;-69
2021/12/02 07:02:25;;;;;;;0.40;0.30;;;9.20;87.00;;;;;;5000009;28;20030;-69
2021/12/02 07:04:51;;;;;;;1.30;0.30;;;9.20;87.20;;;;;;5019308;28;20029;-69
2021/12/02 07:07:17;;;;;;;0.40;0.37;;;9.30;86.90;;;;;;5014454;28;20040;-69
2021/12/02 07:09:43;;;;;;;1.13;0.60;;;9.30;86.40;;;;;;5005565;28;20041;-68
2021/12/02 07:12:09;;;;;;;;;;;9.30;86.30;;;;;;4999270;28;20029;-69
2021/12/02 07:14:35;;;;;;;0.88;0.40;;;9.30;86.40;;;;;;5014059;28;19910;-69
2021/12/02 07:17:00;;;;;;;0.50;0.37;;;9.30;86.40;;;;;;5001471;28;20033;-72
2021/12/02 07:19:26;;;;;;;0.20;0.20;;;9.30;86.50;;;;;;5005462;28;20714;-72
2021/12/02 07:21:52;;;;;;;0.30;0.30;;;9.10;86.40;;;;;;5004675;28;20105;-72
2021/12/02 07:24:17;;;;;;;0.30;0.30;;;9.10;86.80;;;;;;4999084;28;20075;-72
2021/12/02 07:26:46;;;;;;;0.43;0.30;;;9.00;87.20;;;;;;5004786;28;20026;-72
2021/12/02 07:29:18;;;;;;;0.32;0.30;;;9.00;87.50;;;;;;5005621;28;20116;-72
2021/12/02 07:31:44;;;;;;;1.05;0.50;;;9.00;87.60;;;;;;5001822;28;20475;-72
2021/12/02 07:34:10;;;;;;;0.20;0.20;;;8.90;87.40;;;;;;4999774;28;20025;-72
2021/12/02 07:36:37;;;;;;;0.63;0.50;;;8.80;87.70;;;;;;5002306;28;20364;-72
2021/12/02 07:39:07;;;;;;;0.38;0.38;;;8.80;88.20;;;;;;5022272;28;20030;-72
2021/12/02 07:41:33;;;;;;;0.40;0.30;;;8.80;88.10;;;;;;5002322;28;20033;-72
2021/12/02 07:43:59;;;;;;;0.28;0.28;;;8.80;88.30;;;;;;5016240;28;20087;-72
2021/12/02 07:46:25;;;;;;;0.40;0.37;;;8.80;88.10;;;;;;5000241;28;20056;-72
2021/12/02 07:48:52;;;;;;;0.60;0.40;;;8.80;88.00;;;;;;4968920;28;1128444;-72
2021/12/02 07:51:18;;;;;;;4.22;0.80;;;8.80;88.20;;;;;;4999119;28;20076;-72
2021/12/02 07:53:47;;;;;;;0.55;0.50;;;8.80;88.60;;;;;;5005072;28;20022;-72
2021/12/02 07:56:16;;;;;;;0.38;0.38;;;8.80;88.20;;;;;;4999022;28;20057;-72
2021/12/02 07:58:46;;;;;;;1.13;0.50;;;8.80;88.40;;;;;;5008660;28;20627;-72
2021/12/02 08:01:14;;;;;;;1.65;0.50;;;8.80;88.30;;;;;;5007155;28;20379;-72
2021/12/02 08:03:44;;;;;;;0.70;0.70;;;8.90;87.80;;;;;;5003469;28;20049;-72
2021/12/02 08:06:15;;;;;;;0.95;0.73;;;8.90;87.80;;;;;;4999126;28;20436;-72
2021/12/02 08:08:42;;;;;;;0.55;0.55;;;8.90;87.70;;;;;;5002449;28;20022;-72
2021/12/02 08:11:09;;;;;;;0.90;0.80;;;8.90;87.40;;;;;;5003315;28;20021;-72
2021/12/02 08:13:36;;;;;;;0.85;0.70;;;9.00;87.70;;;;;;5002783;28;20041;-72
2021/12/02 08:16:04;;;;;;;0.65;0.65;;;9.00;86.60;;;;;;5004890;28;20533;-72
2021/12/02 08:18:30;;;;;;;1.00;0.68;;;9.00;87.10;;;;;;5002721;28;20021;-72
2021/12/02 08:20:56;;;;;;;1.43;0.70;;;9.00;87.10;;;;;;5001800;28;20041;-72
2021/12/02 08:23:22;;;;;;;0.80;0.70;;;9.10;87.00;;;;;;5001697;28;20268;-72
2021/12/02 08:25:48;;;;;;;1.70;0.60;;;9.00;86.60;;;;;;5004848;28;20260;-73
2021/12/02 08:28:15;;;;;;;0.57;0.50;;;9.00;86.10;;;;;;5004261;28;20029;-72
2021/12/02 08:30:40;;;;;;;0.50;0.30;;;9.00;86.40;;;;;;5002409;28;20085;-72
2021/12/02 08:33:08;;;;;;;2.07;0.40;;;9.00;86.20;;;;;;5001898;28;20022;-72
2021/12/02 08:35:35;;;;;;;0.57;0.40;;;9.10;85.80;;;;;;5003160;28;20113;-72
2021/12/02 08:38:09;;;;;;;0.70;0.47;;;9.10;85.80;;;;;;5003614;28;20025;-72
2021/12/02 08:40:37;;;;;;;0.68;0.55;;;9.10;85.50;;;;;;5016634;28;20069;-72
2021/12/02 08:43:05;;;;;;;2.00;0.40;;;9.10;85.50;;;;;;4994391;28;20133;-72
2021/12/02 08:45:32;;;;;;;1.85;0.50;;;9.20;85.60;;;;;;5002971;28;20016;-72
2021/12/02 08:47:58;;;;;;;;;;;9.20;85.70;;;;;;4994581;28;20014;-72
2021/12/02 08:50:24;;;;;;;1.23;0.60;;;9.20;86.20;;;;;;5002605;28;19939;-72
2021/12/02 08:52:52;;;;;;;0.50;0.33;;;9.20;87.50;;;;;;4998103;28;20707;-72
2021/12/02 08:55:20;;;;;;;0.60;0.60;;;9.20;87.70;;;;;;4997963;28;20469;-72
2021/12/02 08:57:47;;;;;;;0.50;0.50;;;9.10;86.70;;;;;;5010491;28;20040;-72
2021/12/02 09:00:15;;;;;;;0.95;0.40;;;9.10;88.40;;;;;;5016145;28;20029;-72
2021/12/02 09:02:41;;;;;;;1.05;0.47;;;9.10;88.50;;;;;;5005406;28;20349;-72
2021/12/02 09:05:08;;;;;;;0.93;0.73;;;9.10;86.40;;;;;;5004664;28;20031;-72
2021/12/02 09:07:34;;;;;;;0.60;0.50;;;9.10;87.10;;;;;;5001391;28;20645;-72
2021/12/02 09:10:00;;;;;;;0.57;0.47;;;9.10;87.50;;;;;;5005034;28;20030;-72
2021/12/02 09:12:25;;;;;;;0.30;0.20;;;9.10;87.20;;;;;;5014854;28;20024;-72
2021/12/02 09:14:52;;;;;;;0.50;0.47;;;9.00;87.50;;;;;;5000665;28;20321;-72
2021/12/02 09:17:18;;;;;;;0.40;0.40;;;9.00;87.80;;;;;;5000835;28;20080;-72
2021/12/02 09:19:45;;;;;;;0.73;0.50;;;9.00;87.20;;;;;;5004339;28;20060;-72
2021/12/02 09:22:11;;;;;;;0.47;0.47;;;9.10;86.80;;;;;;5002820;28;20106;-72
2021/12/02 09:24:39;;;;;;;;;;;9.10;87.20;;;;;;4998703;28;20029;-71
2021/12/02 09:27:05;;;;;;;1.75;0.40;;;9.10;86.60;;;;;;4997833;28;20269;-72
2021/12/02 09:29:30;;;;;;;0.73;0.50;;;9.00;87.20;;;;;;5005428;28;20029;-72
2021/12/02 09:31:56;;;;;;;0.50;0.50;;;9.10;88.00;;;;;;5004573;28;20577;-72
2021/12/02 09:34:26;;;;;;;0.30;0.30;;;9.10;87.70;;;;;;4998126;28;20829;-72
2021/12/02 09:36:52;;;;;;;1.05;0.70;;;9.10;87.50;;;;;;5002975;28;20013;-72
2021/12/02 09:39:18;;;;;;;2.00;0.52;;;9.10;87.70;;;;;;5003735;28;20171;-72
2021/12/02 09:41:45;;;;;;;0.87;0.60;;;9.00;88.60;;;;;;5006360;28;20030;-72
2021/12/02 09:44:11;;;;;;;2.47;0.70;;;9.00;88.30;;;;;;4998692;28;20030;-72
2021/12/02 09:46:39;;;;;;;0.98;0.60;;;9.00;89.10;;;;;;5000197;28;20402;-72
2021/12/02 09:49:07;;;;;;;1.13;0.63;;;9.00;90.00;;;;;;4995692;28;20480;-72
2021/12/02 09:52:30;;;;;;;1.02;0.60;;;9.00;89.50;;;;;;5004618;28;20080;-72
2021/12/02 09:54:37;;;;;;;0.80;0.80;;;9.00;89.80;;;;;;4994649;28;20095;-72
2021/12/02 09:57:06;;;;;;;0.65;0.65;;;8.90;89.60;;;;;;5000388;28;20065;-72
2021/12/02 09:59:48;;;;;;;3.15;1.10;;;8.90;89.70;;;;;;5016306;28;20032;-72
2021/12/02 10:02:17;;;;;;;0.43;0.43;;;9.00;90.40;;;;;;5001365;28;20040;-72
2021/12/02 10:05:03;;;;;;;0.70;0.70;;;9.00;89.90;;;;;;4997918;28;20056;-72
2021/12/02 10:07:45;;;;;;;2.65;0.80;;;9.00;89.80;;;;;;4999367;28;20021;-71
2021/12/02 10:10:25;;;;;;;0.70;0.70;;;9.00;90.10;;;;;;5002440;28;20105;-72
2021/12/02 10:13:11;;;;;;;0.77;0.77;;;9.00;90.10;;;;;;4999756;28;20048;-72
2021/12/02 10:15:39;;;;;;;1.75;0.60;;;9.00;90.40;;;;;;4998847;28;20025;-73
2021/12/02 10:18:12;;;;;;;0.80;0.80;;;9.00;90.10;;;;;;5005822;28;20108;-72
2021/12/02 10:20:43;;;;;;;0.85;0.85;;;9.00;90.10;;;;;;5018888;28;20044;-72
2021/12/02 10:23:22;;;;;;;1.08;0.98;;;8.90;90.60;;;;;;5020039;28;20125;-72
2021/12/02 10:25:55;;;;;;;1.10;1.00;;;8.90;90.70;;;;;;4998524;28;20736;-72
2021/12/02 10:28:22;;;;;;;2.13;1.20;;;8.90;91.20;;;;;;5005992;28;20031;-72
2021/12/02 10:30:56;;;;;;;1.88;1.42;;;8.80;91.50;;;;;;4996741;28;20105;-72
2021/12/02 10:33:31;;;;;;;11.95;6.38;;;8.80;92.10;;;;;;5000894;28;20518;-71
2021/12/02 10:35:58;;;;;;;7.57;4.75;;;8.70;92.70;;;;;;5015295;28;20112;-72
2021/12/02 10:38:43;;;;;;;;;;;8.60;92.70;;;;;;5002260;28;20475;-72
2021/12/02 10:41:21;;;;;;;2.83;1.92;;;8.60;93.60;;;;;;4997662;28;19963;-72
2021/12/02 10:44:11;;;;;;;1.25;1.00;;;8.60;93.70;;;;;;4999032;28;20025;-72
2021/12/02 10:47:00;;;;;;;1.08;1.00;;;8.60;93.30;;;;;;5001306;28;20021;-72
2021/12/02 10:49:28;;;;;;;1.27;1.17;;;8.60;93.30;;;;;;5007105;28;20029;-72
2021/12/02 10:51:56;;;;;;;1.42;1.30;;;8.60;92.90;;;;;;5012354;28;20118;-72
2021/12/02 10:54:27;;;;;;;2.97;1.20;;;8.60;92.90;;;;;;5005899;28;20499;-71
2021/12/02 10:56:59;;;;;;;0.88;0.75;;;8.60;92.70;;;;;;5012158;28;20034;-72
2021/12/02 10:59:30;;;;;;;1.13;1.02;;;8.70;92.20;;;;;;5005707;28;20025;-72
2021/12/02 11:01:59;;;;;;;1.10;0.90;;;8.60;92.40;;;;;;5004229;28;20127;-72
2021/12/02 11:04:27;;;;;;;0.82;0.70;;;8.70;91.90;;;;;;5021301;28;20033;-72
2021/12/02 11:07:00;;;;;;;2.13;1.23;;;8.70;91.70;;;;;;5010978;28;20723;-72
2021/12/02 11:09:32;;;;;;;1.75;1.08;;;8.70;91.40;;;;;;5005615;28;20037;-72
2021/12/02 11:12:14;;;;;;;1.65;1.00;;;8.70;91.40;;;;;;5002108;28;20075;-72
2021/12/02 11:14:55;;;;;;;1.65;1.00;;;8.70;91.70;;;;;;5007189;28;20021;-72
2021/12/02 11:17:23;;;;;;;1.65;1.25;;;8.70;91.30;;;;;;5007905;28;20017;-73
2021/12/02 11:19:51;;;;;;;1.63;1.08;;;8.70;91.50;;;;;;4999111;28;20026;-72
2021/12/02 11:22:19;;;;;;;1.40;0.80;;;8.60;91.60;;;;;;5000622;28;20038;-72
2021/12/02 11:24:46;;;;;;;1.25;1.00;;;8.60;91.40;;;;;;4999313;28;20029;-72
2021/12/02 11:27:27;;;;;;;1.60;1.00;;;8.50;91.80;;;;;;5022060;28;20473;-72
2021/12/02 11:30:01;;;;;;;1.30;1.20;;;8.50;92.00;;;;;;4999972;28;20404;-72
2021/12/02 11:32:35;;;;;;;1.05;1.00;;;8.50;92.30;;;;;;5006513;28;20029;-71
2021/12/02 11:35:33;;;;;;;2.15;1.02;;;8.50;92.60;;;;;;5014791;28;20104;-71
2021/12/02 11:38:08;;;;;;;0.98;0.80;;;8.60;92.10;;;;;;5017543;28;20570;-72
2021/12/02 11:40:38;;;;;;;1.25;1.00;;;8.50;92.30;;;;;;4999861;28;20025;-72
2021/12/02 11:43:06;;;;;;;0.90;0.90;;;8.50;92.30;;;;;;5002352;28;20018;-72
2021/12/02 11:45:40;;;;;;;2.75;1.08;;;8.50;92.50;;;;;;5001032;28;20122;-72
2021/12/02 11:48:06;;;;;;;2.20;1.42;;;8.60;92.50;;;;;;5008659;28;20018;-72
2021/12/02 11:50:32;;;;;;;1.10;0.80;;;8.60;92.70;;;;;;5002072;28;20037;-72
2021/12/02 11:52:58;;;;;;;0.75;0.75;;;8.70;92.30;;;;;;5007184;28;20040;-72
2021/12/02 11:55:29;;;;;;;1.27;1.00;;;8.70;92.70;;;;;;5017773;28;20022;-72
2021/12/02 11:57:56;;;;;;;0.93;0.80;;;8.60;92.20;;;;;;5007836;28;20021;-72
2021/12/02 12:00:22;;;;;;;;;;;8.60;92.10;;;;;;5005873;28;20052;-72
2021/12/02 12:03:00;;;;;;;2.15;1.17;;;8.60;92.50;;;;;;4998712;28;19936;-72
2021/12/02 12:05:29;;;;;;;;;;;8.60;92.10;;;;;;5001399;28;20025;-72
2021/12/02 12:07:55;;;;;;;2.92;0.80;;;8.60;92.40;;;;;;4996761;28;20385;-71
2021/12/02 12:10:32;;;;;;;0.98;0.80;;;8.60;92.70;;;;;;5007845;28;20037;-71
2021/12/02 12:13:22;;;;;;;1.95;0.90;;;8.60;93.00;;;;;;5006083;28;20392;-72
2021/12/02 12:15:53;;;;;;;1.13;0.90;;;8.70;92.80;;;;;;5006399;28;20581;-72
2021/12/02 12:18:37;;;;;;;1.98;0.80;;;8.70;92.40;;;;;;5007968;28;20569;-72
2021/12/02 12:21:04;;;;;;;0.70;0.70;;;8.60;92.20;;;;;;5007978;28;20028;-72
2021/12/02 12:23:41;;;;;;;2.92;1.13;;;8.60;92.30;;;;;;5002870;28;20025;-72
2021/12/02 12:26:11;;;;;;;0.80;0.80;;;8.60;92.40;;;;;;5005014;28;20014;-72
2021/12/02 12:29:08;;;;;;;2.80;1.08;;;8.60;92.00;;;;;;5003681;28;20021;-73
2021/12/02 12:31:49;;;;;;;1.42;1.00;;;8.60;92.10;;;;;;4998926;28;20711;-72
2021/12/02 12:34:30;;;;;;;2.10;1.02;;;8.50;91.90;;;;;;5013893;28;20030;-72
2021/12/02 12:37:23;;;;;;;1.60;1.00;;;8.50;92.10;;;;;;4994264;28;20018;-71
2021/12/02 12:40:17;;;;;;;1.00;0.90;;;8.40;91.80;;;;;;5005335;28;20053;-72
2021/12/02 12:42:47;;;;;;;5.53;2.95;;;8.50;91.60;;;;;;5000355;28;20670;-72
2021/12/02 12:45:36;;;;;;;8.55;4.63;;;8.50;91.50;;;;;;5007429;28;20025;-72
2021/12/02 12:48:04;;;;;;;1.90;1.48;;;8.50;91.40;;;;;;5005030;28;20021;-72
2021/12/02 12:50:45;;;;;;;2.25;0.93;;;8.50;90.90;;;;;;5003517;28;20041;-71
2021/12/02 12:53:17;;;;;;;0.60;0.60;;;8.50;90.20;;;;;;5003298;28;20016;-72
2021/12/02 12:55:50;;;;;;;1.45;0.90;;;8.50;90.20;;;;;;5016453;28;20025;-72
2021/12/02 12:58:19;;;;;;;1.50;0.88;;;8.40;90.20;;;;;;5007750;28;20087;-72
2021/12/02 13:00:52;;;;;;;1.10;0.90;;;8.40;90.20;;;;;;4998492;28;20743;-72
2021/12/02 13:03:22;;;;;;;2.10;1.10;;;8.40;90.30;;;;;;5006454;28;20030;-72
2021/12/02 13:05:55;;;;;;;1.02;0.63;;;8.50;90.30;;;;;;5000145;28;20204;-72
2021/12/02 13:08:25;;;;;;;1.67;0.77;;;8.50;90.50;;;;;;5006644;28;20045;-72
2021/12/02 13:10:52;;;;;;;0.70;0.70;;;8.50;89.60;;;;;;5002652;28;20648;-72
2021/12/02 13:13:27;;;;;;;0.90;0.73;;;8.50;90.20;;;;;;5003248;28;20025;-71
2021/12/02 13:16:06;;;;;;;3.50;0.80;;;8.50;89.50;;;;;;5001076;28;20137;-72
2021/12/02 13:18:35;;;;;;;1.65;0.65;;;8.50;89.00;;;;;;5005530;28;20028;-72
2021/12/02 13:21:34;;;;;;;1.77;0.57;;;8.50;89.00;;;;;;5001580;28;20371;-71
2021/12/02 13:24:01;;;;;;;1.67;0.73;;;8.40;89.20;;;;;;5005556;28;20036;-72
2021/12/02 13:26:35;;;;;;;1.10;0.77;;;8.30;89.10;;;;;;5007665;28;20125;-71
2021/12/02 13:29:05;;;;;;;0.75;0.50;;;8.30;88.60;;;;;;5004764;28;20134;-72